Monday, December 5, 2016, 11:36 AM EST

KSEG, Selinsgrove Penn Valley Airport

Location: Selinsgrove, PA, United States Lat: 40.817
Local Time: 11:36 AM EST (16:36 GMT) Lon: -76.867
Time Zone: US/Eastern Elev: 449 ft

Show me the last for .
Show Decoded

2016-12-05 10:53 METAR KSEG 051553Z AUTO 23004KT 10SM FEW012 BKN036 06/04 A3000 RMK AO2 SLP161
                 T00560044 =
2016-12-05 10:15 METAR KSEG 051515Z AUTO 22003KT 10SM FEW008 SCT029 OVC035 05/04 A3000 RMK AO2
                 T00500044 =
2016-12-05 10:01 METAR KSEG 051501Z AUTO 20004KT 9SM SCT008 BKN029 OVC037 04/03 A3000 RMK AO2
                 T00440033 =
2016-12-05 09:53 METAR KSEG 051453Z AUTO 22004KT 9SM BKN007 OVC037 04/04 A3000 RMK AO2 RAB11E18
                 CIG 005V011 SLP161 P0000 60000 T00390039 50007 =
2016-12-05 08:53 METAR KSEG 051353Z AUTO 22004KT 6SM BR BKN008 OVC036 03/03 A3000 RMK AO2
                 UPE1254RAB27E45 SLP162 P0000 T00280028 =
2016-12-05 07:53 METAR KSEG 051253Z AUTO 22003KT 5SM UP BR OVC009 02/02 A2999 RMK AO2
                 RAB10E52UPB52 CIG 007V012 SLP158 P0000 T00220022 =
2016-12-05 06:53 METAR KSEG 051153Z AUTO 24004KT 7SM OVC009 02/02 A2998 RMK AO2 RAE32 SLP154
                 P0000 60009 70011 I6000 T00220022 10028 20017 53008 =
2016-12-05 06:28 METAR KSEG 051128Z AUTO VRB05KT 10SM -RA OVC009 03/03 A2996 RMK AO2 CIG 007V013
                 P0000 T00280028 =
2016-12-05 05:53 METAR KSEG 051053Z AUTO 21007KT 10SM -RA OVC010 03/03 A2995 RMK AO2
                 RAB37UPB50E51 CIG 008V012 SLP147 P0000 T00280028 TSNO =
2016-12-05 04:53 METAR KSEG 050953Z AUTO 19008KT 10SM OVC013 03/02 A2995 RMK AO2 RAE22 SLP147
                 P0000 T00280022 =
2016-12-05 03:57 METAR KSEG 050857Z AUTO VRB05KT 4SM -RA BR FEW008 OVC016 02/02 A2995 RMK AO2
                 P0000 T00220022 =
2016-12-05 03:53 METAR KSEG 050853Z AUTO 18007KT 4SM -RA BR OVC014 02/02 A2995 RMK AO2 UPB27E31
                 SLP145 P0001 60009 I1000 I3000 T00220022 56016 =
2016-12-05 02:53 METAR KSEG 050753Z AUTO 17007KT 4SM -RA BR FEW008 BKN019 OVC024 02/02 A2997 RMK
                 AO2 SLP151 P0003 I1000 T00170017 =
2016-12-05 02:01 METAR KSEG 050701Z AUTO 17007KT 4SM -RA BR SCT006 OVC019 02/02 A2998 RMK AO2
                 P0000 T00220022 =
2016-12-05 01:53 METAR KSEG 050653Z AUTO 17007KT 3SM -RA BR BKN008 BKN014 OVC019 02/02 A2998 RMK
                 AO2 SLP154 P0005 I1000 T00220022 =
2016-12-05 01:36 METAR KSEG 050636Z AUTO 18004KT 3SM RA BR BKN008 BKN014 OVC019 02/02 A2998 RMK
                 AO2 P0004 I1000 T00220022 =
2016-12-05 00:53 METAR KSEG 050553Z AUTO 18009KT 4SM RA BR FEW019 BKN027 OVC031 03/02 A3000 RMK
                 AO2 RAE0456B22 SLP160 P0002 60002 T00280017 10050 20028 55020 =
2016-12-05 00:11 METAR KSEG 050511Z AUTO 19010G17KT 10SM BKN028 BKN050 OVC075 04/01 A3000 RMK AO2
                 RAE0456 P0000 T00440006 =
2016-12-04 23:53 METAR KSEG 050453Z AUTO 17013G22KT 10SM -RA FEW030 SCT060 OVC075 05/00 A2999 RMK
                 AO2 RAB46 SLP158 P0000 T00500000 400720022 =
2016-12-04 22:53 METAR KSEG 050353Z AUTO 17006KT 10SM BKN037 BKN095 OVC110 05/M01 A3004 RMK AO2
                 SLP175 T00501006 =
2016-12-04 21:53 METAR KSEG 050253Z AUTO 16004KT 10SM BKN110 04/M01 A3006 RMK AO2 SLP181
                 T00391006 58031 =
2016-12-04 20:53 METAR KSEG 050153Z AUTO 11003KT 10SM FEW120 03/01 A3009 RMK AO2 PRESFR SLP191
                 T00280011 =
2016-12-04 19:53 METAR KSEG 050053Z AUTO 00000KT 10SM CLR 03/00 A3012 RMK AO2 SLP204 T00280000 =
2016-12-04 18:53 METAR KSEG 042353Z AUTO 00000KT 10SM CLR 03/M01 A3015 RMK AO2 SLP213 T00281006
                 10072 20022 56011 =
2016-12-04 17:53 METAR KSEG 042253Z AUTO 00000KT 10SM CLR 03/00 A3016 RMK AO2 SLP215 T00280000 =
2016-12-04 16:53 METAR KSEG 042153Z AUTO 00000KT 10SM CLR 04/M01 A3016 RMK AO2 SLP216 T00441011 =
2016-12-04 15:53 METAR KSEG 042053Z AUTO 00000KT 10SM CLR 06/M02 A3018 RMK AO2 SLP224 T00611022
                 56013 =
2016-12-04 14:53 METAR KSEG 041953Z AUTO 00000KT 10SM CLR 06/M03 A3019 RMK AO2 SLP224 T00611033 =
2016-12-04 13:53 METAR KSEG 041853Z AUTO 00000KT 10SM CLR 07/M03 A3021 RMK AO2 SLP231 T00671028 =
2016-12-04 12:53 METAR KSEG 041753Z AUTO 00000KT 10SM CLR 06/M03 A3022 RMK AO2 SLP236 T00611028
                 10067 20033 58017 =
2016-12-04 11:53 METAR KSEG 041653Z AUTO 34005KT 10SM FEW041 06/M02 A3025 RMK AO2 SLP247
                 T00611017 TSNO =

Support USWX by starting your Amazon purchase here.